3K3

Syracuse-Hamilton County Municipal Airport

Syracuse, Kansas, USA
METAR K3K3 251635Z AUTO 02021G33KT 10SM CLR 17/06 A3013 RMK AO2
Observed Flight Rules
Sep-25 @ 16:35 UTC (29 minutes ago) Visual Flight Rules
Wind Visibility Clouds
20° at 21 knots
 Gusting to 33 knots
10 miles
  • Clear skies
Temperatures Readings
Current 17°C / 63°F
Dewpoint 6°C / 43°F
Humidity 49%
Altimeter 30.13" Hg
Pressure 1020 hPa
Elevation 1013
METAR K3K3 251635Z AUTO 02021G33KT 10SM CLR 17/06 A3013 RMK AO2
Observed Flight Rules
Sep-25 @ 16:35 UTC
(29 minutes ago)
VFR
Wind Visibility
20° at 21 knots
 Gusting to 33 knots
10 miles
Clouds
  • Clear skies
Temperature Dewpoint
17°C / 63°F 6°C / 43°F
Humidity Altimeter Pressure
49% 30.13" Hg 1020 hPa